Terminal Aerodrome Forecast
Issued by NWS

Home | Current Version | Previous Version | Text Only | Print | Product List | Glossary On
Versions: 1 2 3 4 5 6 7 8 9 10 11 12 13 14 15 16
400
FTUS42 KGSP 272210 AAA
TAFGMU
TAF AMD
KGMU 272210Z 2722/2818 22009KT P6SM VCTS BKN045CB
      TEMPO 2722/2724 VRB12G25KT 3/4SM +TSRA BR BKN030 OVC040CB
     FM280000 23003KT P6SM BKN060
     FM281600 23007KT P6SM BKN150 PROB30 2816/2818 4SM -TSRA
      OVC040CB=

USA.gov is the U.S. government's official web portal to all federal, state and local government web resources and services.